sensor_id;sensor_type;location;lat;lon;timestamp;P1;durP1;ratioP1;P2;durP2;ratioP2
71639;SDS011;60912;48.968;10.124;2022-08-02T00:00:13;4.80;;;1.60;;
71639;SDS011;60912;48.968;10.124;2022-08-02T00:02:40;2.85;;;1.15;;
71639;SDS011;60912;48.968;10.124;2022-08-02T00:05:07;3.55;;;1.40;;
71639;SDS011;60912;48.968;10.124;2022-08-02T00:07:36;3.90;;;1.40;;
71639;SDS011;60912;48.968;10.124;2022-08-02T00:10:03;2.67;;;1.20;;
71639;SDS011;60912;48.968;10.124;2022-08-02T00:12:31;2.50;;;1.35;;
71639;SDS011;60912;48.968;10.124;2022-08-02T00:14:57;3.53;;;1.10;;
71639;SDS011;60912;48.968;10.124;2022-08-02T00:17:22;5.57;;;1.48;;
71639;SDS011;60912;48.968;10.124;2022-08-02T00:19:48;2.77;;;1.30;;
71639;SDS011;60912;48.968;10.124;2022-08-02T00:22:13;2.83;;;1.33;;
71639;SDS011;60912;48.968;10.124;2022-08-02T00:24:39;2.70;;;1.40;;
71639;SDS011;60912;48.968;10.124;2022-08-02T00:27:04;4.28;;;1.30;;
71639;SDS011;60912;48.968;10.124;2022-08-02T00:29:32;2.75;;;1.20;;
71639;SDS011;60912;48.968;10.124;2022-08-02T00:31:58;3.20;;;1.30;;
71639;SDS011;60912;48.968;10.124;2022-08-02T00:34:23;3.58;;;1.40;;
71639;SDS011;60912;48.968;10.124;2022-08-02T00:36:49;2.97;;;1.50;;
71639;SDS011;60912;48.968;10.124;2022-08-02T00:39:14;3.27;;;1.50;;
71639;SDS011;60912;48.968;10.124;2022-08-02T00:41:47;2.87;;;1.40;;
71639;SDS011;60912;48.968;10.124;2022-08-02T00:44:14;3.20;;;1.50;;
71639;SDS011;60912;48.968;10.124;2022-08-02T00:46:40;4.00;;;1.40;;
71639;SDS011;60912;48.968;10.124;2022-08-02T00:49:06;2.80;;;1.30;;
71639;SDS011;60912;48.968;10.124;2022-08-02T00:51:32;2.97;;;1.33;;
71639;SDS011;60912;48.968;10.124;2022-08-02T00:53:57;2.50;;;1.23;;
71639;SDS011;60912;48.968;10.124;2022-08-02T00:56:22;4.73;;;1.50;;
71639;SDS011;60912;48.968;10.124;2022-08-02T00:58:48;2.60;;;1.38;;
71639;SDS011;60912;48.968;10.124;2022-08-02T01:01:15;4.07;;;1.23;;
71639;SDS011;60912;48.968;10.124;2022-08-02T01:03:40;2.67;;;1.00;;
71639;SDS011;60912;48.968;10.124;2022-08-02T01:06:05;2.07;;;1.07;;
71639;SDS011;60912;48.968;10.124;2022-08-02T01:08:31;3.08;;;1.50;;
71639;SDS011;60912;48.968;10.124;2022-08-02T01:10:57;3.40;;;1.30;;
71639;SDS011;60912;48.968;10.124;2022-08-02T01:13:22;2.70;;;1.20;;
71639;SDS011;60912;48.968;10.124;2022-08-02T01:15:51;4.20;;;1.25;;
71639;SDS011;60912;48.968;10.124;2022-08-02T01:18:23;3.60;;;1.30;;
71639;SDS011;60912;48.968;10.124;2022-08-02T01:35:00;2.88;;;1.20;;
71639;SDS011;60912;48.968;10.124;2022-08-02T01:37:31;3.08;;;1.33;;
71639;SDS011;60912;48.968;10.124;2022-08-02T01:40:10;2.85;;;1.20;;
71639;SDS011;60912;48.968;10.124;2022-08-02T01:42:40;3.20;;;1.17;;
71639;SDS011;60912;48.968;10.124;2022-08-02T01:45:10;2.23;;;1.20;;
71639;SDS011;60912;48.968;10.124;2022-08-02T01:47:38;2.67;;;1.20;;
71639;SDS011;60912;48.968;10.124;2022-08-02T01:50:05;3.00;;;1.30;;
71639;SDS011;60912;48.968;10.124;2022-08-02T01:52:33;2.45;;;1.10;;
71639;SDS011;60912;48.968;10.124;2022-08-02T01:57:32;2.07;;;1.10;;
71639;SDS011;60912;48.968;10.124;2022-08-02T02:00:02;2.05;;;1.10;;
71639;SDS011;60912;48.968;10.124;2022-08-02T02:02:29;2.45;;;1.17;;
71639;SDS011;60912;48.968;10.124;2022-08-02T02:04:56;3.75;;;1.23;;
71639;SDS011;60912;48.968;10.124;2022-08-02T02:07:23;2.10;;;1.20;;
71639;SDS011;60912;48.968;10.124;2022-08-02T02:09:49;2.60;;;1.20;;
71639;SDS011;60912;48.968;10.124;2022-08-02T02:12:16;2.13;;;1.15;;
71639;SDS011;60912;48.968;10.124;2022-08-02T02:14:43;2.45;;;1.20;;
71639;SDS011;60912;48.968;10.124;2022-08-02T02:17:09;2.20;;;1.10;;
71639;SDS011;60912;48.968;10.124;2022-08-02T02:19:35;2.90;;;1.30;;
71639;SDS011;60912;48.968;10.124;2022-08-02T02:22:02;2.72;;;1.20;;
71639;SDS011;60912;48.968;10.124;2022-08-02T02:24:28;2.80;;;1.45;;
71639;SDS011;60912;48.968;10.124;2022-08-02T02:26:54;3.30;;;1.10;;
71639;SDS011;60912;48.968;10.124;2022-08-02T02:29:23;2.88;;;1.15;;
71639;SDS011;60912;48.968;10.124;2022-08-02T02:31:52;2.87;;;1.20;;
71639;SDS011;60912;48.968;10.124;2022-08-02T02:34:26;2.45;;;1.27;;
71639;SDS011;60912;48.968;10.124;2022-08-02T02:36:54;2.10;;;0.90;;
71639;SDS011;60912;48.968;10.124;2022-08-02T02:39:22;2.38;;;1.17;;
71639;SDS011;60912;48.968;10.124;2022-08-02T02:41:48;2.83;;;1.30;;
71639;SDS011;60912;48.968;10.124;2022-08-02T02:44:17;3.28;;;1.30;;
71639;SDS011;60912;48.968;10.124;2022-08-02T02:46:44;2.70;;;1.25;;
71639;SDS011;60912;48.968;10.124;2022-08-02T02:49:12;2.83;;;1.10;;
71639;SDS011;60912;48.968;10.124;2022-08-02T02:51:40;4.40;;;1.30;;
71639;SDS011;60912;48.968;10.124;2022-08-02T02:54:07;2.43;;;1.27;;
71639;SDS011;60912;48.968;10.124;2022-08-02T02:56:35;2.95;;;1.20;;
71639;SDS011;60912;48.968;10.124;2022-08-02T02:59:02;3.30;;;1.23;;
71639;SDS011;60912;48.968;10.124;2022-08-02T03:01:28;2.00;;;1.17;;
71639;SDS011;60912;48.968;10.124;2022-08-02T03:03:58;2.80;;;1.10;;
71639;SDS011;60912;48.968;10.124;2022-08-02T03:06:25;3.47;;;1.40;;
71639;SDS011;60912;48.968;10.124;2022-08-02T03:08:51;2.03;;;1.10;;
71639;SDS011;60912;48.968;10.124;2022-08-02T03:11:16;2.80;;;1.20;;
71639;SDS011;60912;48.968;10.124;2022-08-02T03:13:42;2.92;;;1.10;;
71639;SDS011;60912;48.968;10.124;2022-08-02T03:16:08;3.83;;;1.30;;
71639;SDS011;60912;48.968;10.124;2022-08-02T03:18:36;2.85;;;1.33;;
71639;SDS011;60912;48.968;10.124;2022-08-02T03:21:04;2.35;;;1.48;;
71639;SDS011;60912;48.968;10.124;2022-08-02T03:23:35;3.38;;;1.48;;
71639;SDS011;60912;48.968;10.124;2022-08-02T03:26:01;2.67;;;1.30;;
71639;SDS011;60912;48.968;10.124;2022-08-02T03:28:27;2.33;;;1.17;;
71639;SDS011;60912;48.968;10.124;2022-08-02T03:30:52;3.58;;;1.52;;
71639;SDS011;60912;48.968;10.124;2022-08-02T03:33:18;2.93;;;1.30;;
71639;SDS011;60912;48.968;10.124;2022-08-02T03:35:46;4.68;;;1.63;;
71639;SDS011;60912;48.968;10.124;2022-08-02T03:38:14;2.97;;;1.42;;
71639;SDS011;60912;48.968;10.124;2022-08-02T03:40:42;3.00;;;1.67;;
71639;SDS011;60912;48.968;10.124;2022-08-02T03:43:09;2.63;;;1.48;;
71639;SDS011;60912;48.968;10.124;2022-08-02T03:45:35;2.88;;;1.40;;
71639;SDS011;60912;48.968;10.124;2022-08-02T03:48:03;3.60;;;1.60;;
71639;SDS011;60912;48.968;10.124;2022-08-02T03:50:29;3.75;;;1.48;;
71639;SDS011;60912;48.968;10.124;2022-08-02T03:52:57;2.70;;;1.40;;
71639;SDS011;60912;48.968;10.124;2022-08-02T03:55:23;3.95;;;1.65;;
71639;SDS011;60912;48.968;10.124;2022-08-02T03:57:49;3.05;;;1.58;;
71639;SDS011;60912;48.968;10.124;2022-08-02T04:00:18;3.27;;;1.60;;
71639;SDS011;60912;48.968;10.124;2022-08-02T04:02:45;5.43;;;1.80;;
71639;SDS011;60912;48.968;10.124;2022-08-02T04:05:10;2.83;;;1.55;;
71639;SDS011;60912;48.968;10.124;2022-08-02T04:07:36;3.80;;;1.70;;
71639;SDS011;60912;48.968;10.124;2022-08-02T04:10:01;2.93;;;1.50;;
71639;SDS011;60912;48.968;10.124;2022-08-02T04:12:27;3.83;;;1.70;;
71639;SDS011;60912;48.968;10.124;2022-08-02T04:14:53;3.17;;;1.60;;
71639;SDS011;60912;48.968;10.124;2022-08-02T04:17:18;2.80;;;1.50;;
71639;SDS011;60912;48.968;10.124;2022-08-02T04:19:52;3.38;;;1.50;;
71639;SDS011;60912;48.968;10.124;2022-08-02T04:22:30;3.00;;;1.70;;
71639;SDS011;60912;48.968;10.124;2022-08-02T04:25:03;4.45;;;1.60;;
71639;SDS011;60912;48.968;10.124;2022-08-02T04:27:31;3.55;;;1.80;;
71639;SDS011;60912;48.968;10.124;2022-08-02T04:30:01;3.53;;;1.70;;
71639;SDS011;60912;48.968;10.124;2022-08-02T04:32:26;3.95;;;1.77;;
71639;SDS011;60912;48.968;10.124;2022-08-02T04:34:52;4.60;;;1.83;;
71639;SDS011;60912;48.968;10.124;2022-08-02T04:37:18;3.08;;;1.48;;
71639;SDS011;60912;48.968;10.124;2022-08-02T04:39:44;3.10;;;1.70;;
71639;SDS011;60912;48.968;10.124;2022-08-02T04:42:09;4.90;;;1.80;;
71639;SDS011;60912;48.968;10.124;2022-08-02T04:44:44;3.37;;;1.77;;
71639;SDS011;60912;48.968;10.124;2022-08-02T04:47:10;4.25;;;1.60;;
71639;SDS011;60912;48.968;10.124;2022-08-02T04:49:35;3.17;;;1.50;;
71639;SDS011;60912;48.968;10.124;2022-08-02T04:52:02;2.85;;;1.30;;
71639;SDS011;60912;48.968;10.124;2022-08-02T04:54:27;3.63;;;1.60;;
71639;SDS011;60912;48.968;10.124;2022-08-02T04:56:53;3.60;;;1.60;;
71639;SDS011;60912;48.968;10.124;2022-08-02T04:59:18;3.50;;;1.47;;
71639;SDS011;60912;48.968;10.124;2022-08-02T05:01:43;3.10;;;1.60;;
71639;SDS011;60912;48.968;10.124;2022-08-02T05:04:09;2.73;;;1.40;;
71639;SDS011;60912;48.968;10.124;2022-08-02T05:06:34;3.20;;;1.40;;
71639;SDS011;60912;48.968;10.124;2022-08-02T05:09:00;3.43;;;1.43;;
71639;SDS011;60912;48.968;10.124;2022-08-02T05:11:25;3.70;;;1.58;;
71639;SDS011;60912;48.968;10.124;2022-08-02T05:13:51;3.77;;;1.50;;
71639;SDS011;60912;48.968;10.124;2022-08-02T05:16:16;3.87;;;1.60;;
71639;SDS011;60912;48.968;10.124;2022-08-02T05:18:42;5.73;;;1.57;;
71639;SDS011;60912;48.968;10.124;2022-08-02T05:21:07;3.30;;;1.50;;
71639;SDS011;60912;48.968;10.124;2022-08-02T05:23:33;3.73;;;1.60;;
71639;SDS011;60912;48.968;10.124;2022-08-02T05:25:58;3.78;;;1.60;;
71639;SDS011;60912;48.968;10.124;2022-08-02T05:28:24;3.27;;;1.60;;
71639;SDS011;60912;48.968;10.124;2022-08-02T05:30:50;3.53;;;1.60;;
71639;SDS011;60912;48.968;10.124;2022-08-02T05:33:15;3.45;;;1.60;;
71639;SDS011;60912;48.968;10.124;2022-08-02T05:35:41;7.07;;;1.60;;
71639;SDS011;60912;48.968;10.124;2022-08-02T05:38:06;4.40;;;1.67;;
71639;SDS011;60912;48.968;10.124;2022-08-02T05:40:32;3.38;;;1.60;;
71639;SDS011;60912;48.968;10.124;2022-08-02T05:42:57;3.77;;;1.50;;
71639;SDS011;60912;48.968;10.124;2022-08-02T05:45:24;3.10;;;1.48;;
71639;SDS011;60912;48.968;10.124;2022-08-02T05:47:50;5.83;;;1.60;;
71639;SDS011;60912;48.968;10.124;2022-08-02T05:50:16;3.03;;;1.52;;
71639;SDS011;60912;48.968;10.124;2022-08-02T05:52:45;4.68;;;1.70;;
71639;SDS011;60912;48.968;10.124;2022-08-02T05:55:33;3.53;;;1.80;;
71639;SDS011;60912;48.968;10.124;2022-08-02T05:58:05;2.83;;;1.60;;
71639;SDS011;60912;48.968;10.124;2022-08-02T06:00:54;5.90;;;1.80;;
71639;SDS011;60912;48.968;10.124;2022-08-02T06:03:24;3.90;;;1.90;;
71639;SDS011;60912;48.968;10.124;2022-08-02T06:05:52;4.22;;;2.00;;
71639;SDS011;60912;48.968;10.124;2022-08-02T06:08:25;3.63;;;1.60;;
71639;SDS011;60912;48.968;10.124;2022-08-02T06:11:13;3.10;;;1.60;;
71639;SDS011;60912;48.968;10.124;2022-08-02T06:13:42;5.70;;;2.00;;
71639;SDS011;60912;48.968;10.124;2022-08-02T06:16:09;3.53;;;1.70;;
71639;SDS011;60912;48.968;10.124;2022-08-02T06:18:34;4.63;;;2.00;;
71639;SDS011;60912;48.968;10.124;2022-08-02T06:21:01;5.05;;;2.20;;
71639;SDS011;60912;48.968;10.124;2022-08-02T06:23:29;5.00;;;2.22;;
71639;SDS011;60912;48.968;10.124;2022-08-02T06:25:56;4.63;;;2.13;;
71639;SDS011;60912;48.968;10.124;2022-08-02T06:28:22;4.30;;;2.20;;
71639;SDS011;60912;48.968;10.124;2022-08-02T06:30:48;4.93;;;1.90;;
71639;SDS011;60912;48.968;10.124;2022-08-02T06:33:13;4.47;;;1.90;;
71639;SDS011;60912;48.968;10.124;2022-08-02T06:35:47;5.33;;;2.10;;
71639;SDS011;60912;48.968;10.124;2022-08-02T06:38:23;4.55;;;1.88;;
71639;SDS011;60912;48.968;10.124;2022-08-02T06:43:34;5.15;;;2.17;;
71639;SDS011;60912;48.968;10.124;2022-08-02T06:46:08;4.67;;;2.03;;
71639;SDS011;60912;48.968;10.124;2022-08-02T06:48:34;6.47;;;2.10;;
71639;SDS011;60912;48.968;10.124;2022-08-02T06:51:01;4.45;;;2.10;;
71639;SDS011;60912;48.968;10.124;2022-08-02T06:53:27;5.50;;;2.40;;
71639;SDS011;60912;48.968;10.124;2022-08-02T06:55:53;3.42;;;2.10;;
71639;SDS011;60912;48.968;10.124;2022-08-02T06:58:18;5.37;;;2.33;;
71639;SDS011;60912;48.968;10.124;2022-08-02T07:00:43;6.17;;;2.40;;
71639;SDS011;60912;48.968;10.124;2022-08-02T07:03:09;4.00;;;2.30;;
71639;SDS011;60912;48.968;10.124;2022-08-02T07:05:35;3.37;;;2.47;;
71639;SDS011;60912;48.968;10.124;2022-08-02T07:08:00;5.03;;;2.50;;
71639;SDS011;60912;48.968;10.124;2022-08-02T07:10:26;4.88;;;2.50;;
71639;SDS011;60912;48.968;10.124;2022-08-02T07:12:52;4.87;;;2.30;;
71639;SDS011;60912;48.968;10.124;2022-08-02T07:15:17;3.45;;;1.92;;
71639;SDS011;60912;48.968;10.124;2022-08-02T07:17:43;4.63;;;2.70;;
71639;SDS011;60912;48.968;10.124;2022-08-02T07:20:08;7.30;;;2.50;;
71639;SDS011;60912;48.968;10.124;2022-08-02T07:22:34;5.80;;;2.30;;
71639;SDS011;60912;48.968;10.124;2022-08-02T07:24:59;4.28;;;2.45;;
71639;SDS011;60912;48.968;10.124;2022-08-02T07:27:25;4.33;;;2.50;;
71639;SDS011;60912;48.968;10.124;2022-08-02T07:29:51;3.67;;;2.47;;
71639;SDS011;60912;48.968;10.124;2022-08-02T07:32:18;5.80;;;2.63;;
71639;SDS011;60912;48.968;10.124;2022-08-02T07:34:45;3.97;;;2.50;;
71639;SDS011;60912;48.968;10.124;2022-08-02T07:37:11;9.37;;;2.37;;
71639;SDS011;60912;48.968;10.124;2022-08-02T07:39:37;5.70;;;2.20;;
71639;SDS011;60912;48.968;10.124;2022-08-02T07:42:02;4.80;;;2.47;;
71639;SDS011;60912;48.968;10.124;2022-08-02T07:44:28;4.15;;;2.70;;
71639;SDS011;60912;48.968;10.124;2022-08-02T07:46:58;4.93;;;2.77;;
71639;SDS011;60912;48.968;10.124;2022-08-02T07:49:27;3.90;;;2.58;;
71639;SDS011;60912;48.968;10.124;2022-08-02T07:51:53;3.97;;;2.40;;
71639;SDS011;60912;48.968;10.124;2022-08-02T07:54:19;4.10;;;3.00;;
71639;SDS011;60912;48.968;10.124;2022-08-02T07:56:45;4.60;;;2.40;;
71639;SDS011;60912;48.968;10.124;2022-08-02T07:59:10;5.60;;;2.92;;
71639;SDS011;60912;48.968;10.124;2022-08-02T08:01:36;6.30;;;2.43;;
71639;SDS011;60912;48.968;10.124;2022-08-02T08:04:02;8.75;;;3.60;;
71639;SDS011;60912;48.968;10.124;2022-08-02T08:06:28;9.33;;;3.10;;
71639;SDS011;60912;48.968;10.124;2022-08-02T08:08:56;5.28;;;2.60;;
71639;SDS011;60912;48.968;10.124;2022-08-02T08:11:21;4.75;;;2.50;;
71639;SDS011;60912;48.968;10.124;2022-08-02T08:13:47;7.60;;;2.60;;
71639;SDS011;60912;48.968;10.124;2022-08-02T08:16:12;5.70;;;2.53;;
71639;SDS011;60912;48.968;10.124;2022-08-02T08:18:38;4.90;;;2.22;;
71639;SDS011;60912;48.968;10.124;2022-08-02T08:21:05;6.33;;;2.30;;
71639;SDS011;60912;48.968;10.124;2022-08-02T08:23:30;4.65;;;2.17;;
71639;SDS011;60912;48.968;10.124;2022-08-02T08:25:56;6.10;;;2.50;;
71639;SDS011;60912;48.968;10.124;2022-08-02T08:28:21;4.10;;;2.40;;
71639;SDS011;60912;48.968;10.124;2022-08-02T08:30:47;3.50;;;2.30;;
71639;SDS011;60912;48.968;10.124;2022-08-02T08:33:12;5.30;;;2.53;;
71639;SDS011;60912;48.968;10.124;2022-08-02T08:35:38;5.33;;;2.60;;
71639;SDS011;60912;48.968;10.124;2022-08-02T08:38:03;6.22;;;2.80;;
71639;SDS011;60912;48.968;10.124;2022-08-02T08:40:29;6.87;;;2.60;;
71639;SDS011;60912;48.968;10.124;2022-08-02T08:42:55;5.90;;;2.30;;
71639;SDS011;60912;48.968;10.124;2022-08-02T08:45:20;4.57;;;2.40;;
71639;SDS011;60912;48.968;10.124;2022-08-02T08:47:47;4.33;;;2.50;;
71639;SDS011;60912;48.968;10.124;2022-08-02T08:50:22;7.80;;;2.77;;
71639;SDS011;60912;48.968;10.124;2022-08-02T08:53:00;5.65;;;2.75;;
71639;SDS011;60912;48.968;10.124;2022-08-02T08:55:28;3.97;;;2.35;;
71639;SDS011;60912;48.968;10.124;2022-08-02T08:57:54;7.10;;;2.83;;
71639;SDS011;60912;48.968;10.124;2022-08-02T09:00:23;5.57;;;2.50;;
71639;SDS011;60912;48.968;10.124;2022-08-02T09:02:49;3.37;;;2.20;;
71639;SDS011;60912;48.968;10.124;2022-08-02T09:05:15;5.32;;;2.65;;
71639;SDS011;60912;48.968;10.124;2022-08-02T09:07:42;5.50;;;2.67;;
71639;SDS011;60912;48.968;10.124;2022-08-02T09:13:09;3.40;;;2.25;;
71639;SDS011;60912;48.968;10.124;2022-08-02T09:15:41;5.82;;;2.30;;
71639;SDS011;60912;48.968;10.124;2022-08-02T09:18:10;3.22;;;2.35;;
71639;SDS011;60912;48.968;10.124;2022-08-02T09:20:56;6.28;;;2.55;;
71639;SDS011;60912;48.968;10.124;2022-08-02T09:23:24;4.47;;;2.50;;
71639;SDS011;60912;48.968;10.124;2022-08-02T09:26:09;4.47;;;2.55;;
71639;SDS011;60912;48.968;10.124;2022-08-02T09:28:37;4.45;;;2.30;;
71639;SDS011;60912;48.968;10.124;2022-08-02T09:31:07;3.65;;;2.42;;
71639;SDS011;60912;48.968;10.124;2022-08-02T09:33:34;3.72;;;2.30;;
71639;SDS011;60912;48.968;10.124;2022-08-02T09:36:01;5.00;;;2.60;;
71639;SDS011;60912;48.968;10.124;2022-08-02T09:38:30;4.38;;;2.30;;
71639;SDS011;60912;48.968;10.124;2022-08-02T09:40:56;3.83;;;2.50;;
71639;SDS011;60912;48.968;10.124;2022-08-02T09:43:33;3.97;;;2.57;;
71639;SDS011;60912;48.968;10.124;2022-08-02T09:46:10;5.57;;;2.47;;
71639;SDS011;60912;48.968;10.124;2022-08-02T09:48:44;3.92;;;2.40;;
71639;SDS011;60912;48.968;10.124;2022-08-02T09:51:37;7.15;;;2.60;;
71639;SDS011;60912;48.968;10.124;2022-08-02T09:54:09;4.80;;;2.75;;
71639;SDS011;60912;48.968;10.124;2022-08-02T09:56:44;4.50;;;2.20;;
71639;SDS011;60912;48.968;10.124;2022-08-02T09:59:10;4.70;;;2.30;;
71639;SDS011;60912;48.968;10.124;2022-08-02T10:01:37;5.35;;;2.50;;
71639;SDS011;60912;48.968;10.124;2022-08-02T10:04:04;4.22;;;2.47;;
71639;SDS011;60912;48.968;10.124;2022-08-02T10:06:31;5.82;;;2.42;;
71639;SDS011;60912;48.968;10.124;2022-08-02T10:08:58;3.70;;;2.30;;
71639;SDS011;60912;48.968;10.124;2022-08-02T10:11:25;4.37;;;2.43;;
71639;SDS011;60912;48.968;10.124;2022-08-02T10:13:53;7.13;;;2.38;;
71639;SDS011;60912;48.968;10.124;2022-08-02T10:16:20;5.05;;;2.33;;
71639;SDS011;60912;48.968;10.124;2022-08-02T10:18:50;3.92;;;2.60;;
71639;SDS011;60912;48.968;10.124;2022-08-02T10:21:27;5.82;;;2.35;;
71639;SDS011;60912;48.968;10.124;2022-08-02T10:24:07;4.60;;;2.50;;
71639;SDS011;60912;48.968;10.124;2022-08-02T10:26:34;3.10;;;2.05;;
71639;SDS011;60912;48.968;10.124;2022-08-02T10:29:02;3.75;;;2.30;;
71639;SDS011;60912;48.968;10.124;2022-08-02T10:31:33;4.60;;;2.20;;
71639;SDS011;60912;48.968;10.124;2022-08-02T10:34:12;4.47;;;2.10;;
71639;SDS011;60912;48.968;10.124;2022-08-02T10:36:41;4.60;;;2.07;;
71639;SDS011;60912;48.968;10.124;2022-08-02T10:39:09;4.43;;;2.10;;
71639;SDS011;60912;48.968;10.124;2022-08-02T10:41:38;4.63;;;1.92;;
71639;SDS011;60912;48.968;10.124;2022-08-02T10:44:07;4.80;;;2.13;;
71639;SDS011;60912;48.968;10.124;2022-08-02T10:46:33;4.60;;;2.10;;
71639;SDS011;60912;48.968;10.124;2022-08-02T10:56:56;4.40;;;2.10;;
71639;SDS011;60912;48.968;10.124;2022-08-02T10:59:31;4.07;;;1.85;;
71639;SDS011;60912;48.968;10.124;2022-08-02T11:01:59;5.10;;;2.03;;
71639;SDS011;60912;48.968;10.124;2022-08-02T11:07:20;2.92;;;1.85;;
71639;SDS011;60912;48.968;10.124;2022-08-02T11:09:56;2.57;;;1.57;;
71639;SDS011;60912;48.968;10.124;2022-08-02T11:12:24;4.30;;;1.85;;
71639;SDS011;60912;48.968;10.124;2022-08-02T11:14:59;3.40;;;1.73;;
71639;SDS011;60912;48.968;10.124;2022-08-02T11:17:28;2.90;;;1.80;;
71639;SDS011;60912;48.968;10.124;2022-08-02T11:20:17;3.25;;;1.80;;
71639;SDS011;60912;48.968;10.124;2022-08-02T11:22:44;3.03;;;1.60;;
71639;SDS011;60912;48.968;10.124;2022-08-02T11:27:46;3.53;;;1.60;;
71639;SDS011;60912;48.968;10.124;2022-08-02T11:30:15;4.13;;;1.58;;
71639;SDS011;60912;48.968;10.124;2022-08-02T11:32:42;4.93;;;1.80;;
71639;SDS011;60912;48.968;10.124;2022-08-02T11:35:08;3.30;;;1.50;;
71639;SDS011;60912;48.968;10.124;2022-08-02T11:37:35;3.28;;;1.50;;
71639;SDS011;60912;48.968;10.124;2022-08-02T11:40:06;3.10;;;1.30;;
71639;SDS011;60912;48.968;10.124;2022-08-02T11:42:35;3.17;;;1.60;;
71639;SDS011;60912;48.968;10.124;2022-08-02T11:45:03;2.77;;;1.40;;
71639;SDS011;60912;48.968;10.124;2022-08-02T11:47:31;3.28;;;1.75;;
71639;SDS011;60912;48.968;10.124;2022-08-02T11:52:50;3.20;;;1.50;;
71639;SDS011;60912;48.968;10.124;2022-08-02T11:55:17;2.72;;;1.63;;
71639;SDS011;60912;48.968;10.124;2022-08-02T11:57:50;4.93;;;1.50;;
71639;SDS011;60912;48.968;10.124;2022-08-02T12:00:22;3.88;;;1.70;;
71639;SDS011;60912;48.968;10.124;2022-08-02T12:02:47;3.83;;;1.40;;
71639;SDS011;60912;48.968;10.124;2022-08-02T12:05:16;2.90;;;1.50;;
71639;SDS011;60912;48.968;10.124;2022-08-02T12:07:43;3.90;;;1.50;;
71639;SDS011;60912;48.968;10.124;2022-08-02T12:10:14;3.08;;;1.40;;
71639;SDS011;60912;48.968;10.124;2022-08-02T12:12:48;2.30;;;1.30;;
71639;SDS011;60912;48.968;10.124;2022-08-02T12:17:58;5.57;;;1.42;;
71639;SDS011;60912;48.968;10.124;2022-08-02T12:20:42;3.70;;;1.53;;
71639;SDS011;60912;48.968;10.124;2022-08-02T12:23:08;2.70;;;1.40;;
71639;SDS011;60912;48.968;10.124;2022-08-02T12:25:33;2.23;;;1.30;;
71639;SDS011;60912;48.968;10.124;2022-08-02T12:28:12;4.53;;;1.60;;
71639;SDS011;60912;48.968;10.124;2022-08-02T12:30:48;2.20;;;1.30;;
71639;SDS011;60912;48.968;10.124;2022-08-02T12:33:19;2.67;;;1.30;;
71639;SDS011;60912;48.968;10.124;2022-08-02T12:35:47;2.22;;;1.10;;
71639;SDS011;60912;48.968;10.124;2022-08-02T12:38:13;2.58;;;1.30;;
71639;SDS011;60912;48.968;10.124;2022-08-02T12:40:38;2.20;;;1.07;;
71639;SDS011;60912;48.968;10.124;2022-08-02T12:43:04;2.77;;;1.20;;
71639;SDS011;60912;48.968;10.124;2022-08-02T12:45:32;4.18;;;1.40;;
71639;SDS011;60912;48.968;10.124;2022-08-02T12:48:09;5.60;;;1.30;;
71639;SDS011;60912;48.968;10.124;2022-08-02T12:50:34;2.43;;;1.30;;
71639;SDS011;60912;48.968;10.124;2022-08-02T12:55:33;2.15;;;1.20;;
71639;SDS011;60912;48.968;10.124;2022-08-02T12:58:02;4.00;;;1.10;;
71639;SDS011;60912;48.968;10.124;2022-08-02T13:00:31;2.57;;;1.03;;
71639;SDS011;60912;48.968;10.124;2022-08-02T13:02:58;3.45;;;1.30;;
71639;SDS011;60912;48.968;10.124;2022-08-02T13:05:24;4.28;;;1.17;;
71639;SDS011;60912;48.968;10.124;2022-08-02T13:07:55;13.50;;;1.70;;
71639;SDS011;60912;48.968;10.124;2022-08-02T13:10:21;2.70;;;1.27;;
71639;SDS011;60912;48.968;10.124;2022-08-02T13:12:47;2.80;;;1.10;;
71639;SDS011;60912;48.968;10.124;2022-08-02T13:15:13;3.75;;;1.20;;
71639;SDS011;60912;48.968;10.124;2022-08-02T13:17:40;2.30;;;1.10;;
71639;SDS011;60912;48.968;10.124;2022-08-02T13:20:06;1.80;;;0.90;;
71639;SDS011;60912;48.968;10.124;2022-08-02T13:22:32;4.57;;;1.00;;
71639;SDS011;60912;48.968;10.124;2022-08-02T13:24:58;8.50;;;1.23;;
71639;SDS011;60912;48.968;10.124;2022-08-02T13:27:24;2.10;;;0.90;;
71639;SDS011;60912;48.968;10.124;2022-08-02T13:29:51;2.83;;;1.08;;
71639;SDS011;60912;48.968;10.124;2022-08-02T13:32:17;2.40;;;1.00;;
71639;SDS011;60912;48.968;10.124;2022-08-02T13:34:43;3.40;;;1.00;;
71639;SDS011;60912;48.968;10.124;2022-08-02T13:37:09;3.33;;;1.05;;
71639;SDS011;60912;48.968;10.124;2022-08-02T13:39:34;3.80;;;1.20;;
71639;SDS011;60912;48.968;10.124;2022-08-02T13:41:59;3.03;;;1.10;;
71639;SDS011;60912;48.968;10.124;2022-08-02T13:44:25;2.23;;;1.10;;
71639;SDS011;60912;48.968;10.124;2022-08-02T13:46:50;1.60;;;0.90;;
71639;SDS011;60912;48.968;10.124;2022-08-02T13:49:16;2.00;;;1.00;;
71639;SDS011;60912;48.968;10.124;2022-08-02T13:51:42;3.95;;;1.10;;
71639;SDS011;60912;48.968;10.124;2022-08-02T13:54:07;1.70;;;0.83;;
71639;SDS011;60912;48.968;10.124;2022-08-02T13:56:32;2.10;;;1.00;;
71639;SDS011;60912;48.968;10.124;2022-08-02T13:58:58;2.60;;;1.02;;
71639;SDS011;60912;48.968;10.124;2022-08-02T14:01:24;3.33;;;1.00;;
71639;SDS011;60912;48.968;10.124;2022-08-02T14:03:50;2.88;;;1.10;;
71639;SDS011;60912;48.968;10.124;2022-08-02T14:06:15;3.33;;;1.20;;
71639;SDS011;60912;48.968;10.124;2022-08-02T14:08:41;2.43;;;1.00;;
71639;SDS011;60912;48.968;10.124;2022-08-02T14:11:06;3.38;;;1.10;;
71639;SDS011;60912;48.968;10.124;2022-08-02T14:13:31;2.47;;;0.90;;
71639;SDS011;60912;48.968;10.124;2022-08-02T14:15:57;2.23;;;0.97;;
71639;SDS011;60912;48.968;10.124;2022-08-02T14:18:23;3.47;;;1.20;;
71639;SDS011;60912;48.968;10.124;2022-08-02T14:20:49;2.80;;;1.17;;
71639;SDS011;60912;48.968;10.124;2022-08-02T14:23:14;2.80;;;1.13;;
71639;SDS011;60912;48.968;10.124;2022-08-02T14:25:40;4.68;;;1.60;;
71639;SDS011;60912;48.968;10.124;2022-08-02T14:28:06;2.23;;;1.00;;
71639;SDS011;60912;48.968;10.124;2022-08-02T14:30:32;1.80;;;1.10;;
71639;SDS011;60912;48.968;10.124;2022-08-02T14:32:57;2.43;;;1.07;;
71639;SDS011;60912;48.968;10.124;2022-08-02T14:35:23;5.50;;;1.30;;
71639;SDS011;60912;48.968;10.124;2022-08-02T14:37:48;2.23;;;0.90;;
71639;SDS011;60912;48.968;10.124;2022-08-02T14:40:13;2.83;;;1.00;;
71639;SDS011;60912;48.968;10.124;2022-08-02T14:42:39;1.90;;;1.00;;
71639;SDS011;60912;48.968;10.124;2022-08-02T14:45:05;3.07;;;1.20;;
71639;SDS011;60912;48.968;10.124;2022-08-02T14:47:31;2.13;;;1.13;;
71639;SDS011;60912;48.968;10.124;2022-08-02T14:49:56;2.17;;;1.10;;
71639;SDS011;60912;48.968;10.124;2022-08-02T14:52:22;1.92;;;1.00;;
71639;SDS011;60912;48.968;10.124;2022-08-02T14:54:47;5.97;;;1.20;;
71639;SDS011;60912;48.968;10.124;2022-08-02T14:57:13;2.97;;;1.17;;
71639;SDS011;60912;48.968;10.124;2022-08-02T14:59:38;3.03;;;1.38;;
71639;SDS011;60912;48.968;10.124;2022-08-02T15:02:04;5.40;;;1.43;;
71639;SDS011;60912;48.968;10.124;2022-08-02T15:04:29;5.93;;;1.40;;
71639;SDS011;60912;48.968;10.124;2022-08-02T15:06:57;2.20;;;1.30;;
71639;SDS011;60912;48.968;10.124;2022-08-02T15:09:23;2.13;;;1.08;;
71639;SDS011;60912;48.968;10.124;2022-08-02T15:11:49;4.00;;;1.30;;
71639;SDS011;60912;48.968;10.124;2022-08-02T15:14:18;3.92;;;1.30;;
71639;SDS011;60912;48.968;10.124;2022-08-02T15:16:43;2.67;;;1.40;;
71639;SDS011;60912;48.968;10.124;2022-08-02T15:19:09;3.17;;;1.10;;